Back to Top

Language: 

My Weather Underground Personal Weather Station Historical Data with Graphs...

Delerius Weather Station Historical Data
Daily Summary for September 19, 2017 Units:  English    Metric   Both
« Previous Day
Next Day »
Daily Weekly Monthly Yearly Custom
  High: Low: Average:
Temperature: 63.0 °F 39.6 °F 51.4 °F
Dew Point: 50.1 °F 38.5 °F 45.5 °F
Humidity: 98 % 57 % 82 %
Wind Speed: 8.0 mph 0.0 mph 2 mph
Wind Gust: 15.0 mph - -
Wind:- - West
Pressure: 30.16 in 30.09 in -
Precipitation: 0.00 in    
Historical Graphs
 
 
Tabular Data for September 19, 2017
Time Temperature Dew Point Pressure Wind Wind Speed Wind Gust Humidity Rainfall Rate (Hourly) solar Conditions
00:02 46.9 °F 45.6 °F 30.12 in Calm   1.0 mph 95 % 0.00 in 0 W/m2
00:07 46.9 °F 45.6 °F 30.11 in NW 1.0 mph 5.0 mph 95 % 0.00 in 0 W/m2
00:12 46.8 °F 45.4 °F 30.11 in NW 2.0 mph 6.0 mph 95 % 0.00 in 0 W/m2
00:17 46.8 °F 45.4 °F 30.11 in NW 1.0 mph 6.0 mph 95 % 0.00 in 0 W/m2
00:22 46.8 °F 45.4 °F 30.12 in Calm     95 % 0.00 in 0 W/m2
00:27 46.6 °F 45.2 °F 30.12 in Calm     95 % 0.00 in 0 W/m2
00:32 46.4 °F 45.0 °F 30.12 in Calm     95 % 0.00 in 0 W/m2
00:37 46.2 °F 44.9 °F 30.12 in Calm     95 % 0.00 in 0 W/m2
00:42 46.2 °F 44.9 °F 30.12 in Calm     95 % 0.00 in 0 W/m2
00:47 46.0 °F 44.7 °F 30.12 in Calm     95 % 0.00 in 0 W/m2
00:52 46.0 °F 44.7 °F 30.12 in Calm   3.0 mph 95 % 0.00 in 0 W/m2
00:57 45.9 °F 44.5 °F 30.12 in Calm   3.0 mph 95 % 0.00 in 0 W/m2
01:02 45.9 °F 44.5 °F 30.12 in Calm   3.0 mph 95 % 0.00 in 0 W/m2
01:07 45.9 °F 44.5 °F 30.12 in Calm   1.0 mph 95 % 0.00 in 0 W/m2
01:12 45.9 °F 44.5 °F 30.12 in Calm   1.0 mph 95 % 0.00 in 0 W/m2
01:17 45.9 °F 44.5 °F 30.12 in Calm   1.0 mph 95 % 0.00 in 0 W/m2
01:22 45.9 °F 44.8 °F 30.12 in Calm   1.0 mph 96 % 0.00 in 0 W/m2
01:27 45.7 °F 44.3 °F 30.12 in Calm   2.0 mph 95 % 0.00 in 0 W/m2
01:32 45.7 °F 44.3 °F 30.12 in Calm   2.0 mph 95 % 0.00 in 0 W/m2
01:37 45.5 °F 44.4 °F 30.13 in NW 1.0 mph 3.0 mph 96 % 0.00 in 0 W/m2
01:42 45.3 °F 44.0 °F 30.13 in NW 1.0 mph 5.0 mph 95 % 0.00 in 0 W/m2
01:47 45.3 °F 44.0 °F 30.13 in NW 1.0 mph 5.0 mph 95 % 0.00 in 0 W/m2
01:52 45.1 °F 44.1 °F 30.13 in NW 1.0 mph 4.0 mph 96 % 0.00 in 0 W/m2
01:57 45.1 °F 44.1 °F 30.13 in Calm   4.0 mph 96 % 0.00 in 0 W/m2
02:02 45.0 °F 43.9 °F 30.13 in Calm   2.0 mph 96 % 0.00 in 0 W/m2
02:07 45.0 °F 43.9 °F 30.13 in Calm   2.0 mph 96 % 0.00 in 0 W/m2
02:12 44.8 °F 43.7 °F 30.13 in Calm   4.0 mph 96 % 0.00 in 0 W/m2
02:17 44.8 °F 43.7 °F 30.13 in NW 1.0 mph 5.0 mph 96 % 0.00 in 0 W/m2
02:22 44.8 °F 43.7 °F 30.13 in NW 3.0 mph 6.0 mph 96 % 0.00 in 0 W/m2
02:27 44.8 °F 43.7 °F 30.13 in NW 3.0 mph 6.0 mph 96 % 0.00 in 0 W/m2
02:32 44.8 °F 43.7 °F 30.13 in NW 2.0 mph 5.0 mph 96 % 0.00 in 0 W/m2
02:37 44.8 °F 43.7 °F 30.13 in NW 1.0 mph 4.0 mph 96 % 0.00 in 0 W/m2
02:42 44.4 °F 43.4 °F 30.13 in NW 1.0 mph 3.0 mph 96 % 0.00 in 0 W/m2
02:47 44.4 °F 43.4 °F 30.13 in NW 1.0 mph 4.0 mph 96 % 0.00 in 0 W/m2
02:52 44.2 °F 43.2 °F 30.13 in NW 2.0 mph 6.0 mph 96 % 0.00 in 0 W/m2
02:57 44.2 °F 43.2 °F 30.13 in NW 2.0 mph 6.0 mph 96 % 0.00 in 0 W/m2
03:02 44.2 °F 43.2 °F 30.13 in NW 2.0 mph 6.0 mph 96 % 0.00 in 0 W/m2
03:07 44.2 °F 43.2 °F 30.13 in NW 3.0 mph 6.0 mph 96 % 0.00 in 0 W/m2
03:12 44.2 °F 43.2 °F 30.13 in NW 4.0 mph 6.0 mph 96 % 0.00 in 0 W/m2
03:17 44.2 °F 43.2 °F 30.13 in NW 4.0 mph 7.0 mph 96 % 0.00 in 0 W/m2
03:23 44.2 °F 43.2 °F 30.13 in NW 4.0 mph 7.0 mph 96 % 0.00 in 0 W/m2
03:28 44.4 °F 43.4 °F 30.13 in NW 4.0 mph 7.0 mph 96 % 0.00 in 0 W/m2
03:33 44.4 °F 43.4 °F 30.13 in NW 4.0 mph 7.0 mph 96 % 0.00 in 0 W/m2
03:38 44.4 °F 43.4 °F 30.13 in NW 5.0 mph 9.0 mph 96 % 0.00 in 0 W/m2
03:43 44.4 °F 43.4 °F 30.13 in WNW 4.0 mph 9.0 mph 96 % 0.00 in 0 W/m2
03:48 44.2 °F 43.2 °F 30.13 in NW 3.0 mph 6.0 mph 96 % 0.00 in 0 W/m2
03:53 44.2 °F 43.2 °F 30.13 in NW 1.0 mph 4.0 mph 96 % 0.00 in 0 W/m2
03:58 44.1 °F 43.0 °F 30.13 in NW 2.0 mph 5.0 mph 96 % 0.00 in 0 W/m2
04:03 43.9 °F 42.8 °F 30.13 in NW 2.0 mph 5.0 mph 96 % 0.00 in 0 W/m2
04:08 43.7 °F 42.6 °F 30.13 in NW 2.0 mph 5.0 mph 96 % 0.00 in 0 W/m2
04:13 43.3 °F 42.0 °F 30.13 in NW 1.0 mph 4.0 mph 95 % 0.00 in 0 W/m2
04:18 43.0 °F 41.6 °F 30.13 in Calm     95 % 0.00 in 0 W/m2
04:23 42.6 °F 41.3 °F 30.13 in Calm     95 % 0.00 in 0 W/m2
04:28 42.4 °F 41.1 °F 30.13 in Calm     95 % 0.00 in 0 W/m2
04:33 42.3 °F 40.9 °F 30.13 in Calm     95 % 0.00 in 0 W/m2
04:34 42.3 °F 40.9 °F 30.13 in Calm     95 % 0.00 in 0 W/m2
04:39 42.1 °F 40.8 °F 30.13 in Calm     95 % 0.00 in 0 W/m2
04:44 41.7 °F 40.7 °F 30.13 in Calm   3.0 mph 96 % 0.00 in 0 W/m2
04:49 41.5 °F 40.2 °F 30.13 in Calm   3.0 mph 95 % 0.00 in 0 W/m2
04:54 41.5 °F 40.5 °F 30.13 in Calm   3.0 mph 96 % 0.00 in 0 W/m2
04:59 41.4 °F 40.3 °F 30.13 in NW 1.0 mph 4.0 mph 96 % 0.00 in 0 W/m2
05:04 41.4 °F 40.3 °F 30.13 in NW 1.0 mph 5.0 mph 96 % 0.00 in 0 W/m2
05:09 41.4 °F 40.3 °F 30.14 in NW 1.0 mph 5.0 mph 96 % 0.00 in 0 W/m2
05:14 41.4 °F 40.3 °F 30.14 in Calm   4.0 mph 96 % 0.00 in 0 W/m2
05:19 41.4 °F 40.3 °F 30.13 in Calm   1.0 mph 96 % 0.00 in 0 W/m2
05:24 41.2 °F 40.1 °F 30.13 in Calm     96 % 0.00 in 0 W/m2
05:29 41.0 °F 39.9 °F 30.13 in Calm   3.0 mph 96 % 0.00 in 0 W/m2
05:34 40.8 °F 39.8 °F 30.13 in NW 1.0 mph 3.0 mph 96 % 0.00 in 0 W/m2
05:39 40.6 °F 39.6 °F 30.14 in NW 1.0 mph 4.0 mph 96 % 0.00 in 0 W/m2
05:44 40.6 °F 39.6 °F 30.13 in NW 1.0 mph 4.0 mph 96 % 0.00 in 0 W/m2
05:49 40.6 °F 39.6 °F 30.13 in Calm   3.0 mph 96 % 0.00 in 0 W/m2
05:54 40.5 °F 39.4 °F 30.13 in Calm     96 % 0.00 in 0 W/m2
05:59 40.5 °F 39.4 °F 30.13 in Calm   2.0 mph 96 % 0.00 in 0 W/m2
06:04 40.3 °F 39.2 °F 30.13 in NW 1.0 mph 3.0 mph 96 % 0.00 in 0 W/m2
06:09 40.3 °F 39.2 °F 30.13 in NW 1.0 mph 3.0 mph 96 % 0.00 in 0 W/m2
06:14 40.1 °F 39.1 °F 30.13 in Calm     96 % 0.00 in 0 W/m2
06:19 39.9 °F 38.9 °F 30.13 in Calm     96 % 0.00 in 0 W/m2
06:20 39.9 °F 38.9 °F 30.13 in Calm     96 % 0.00 in 0 W/m2
06:25 39.9 °F 38.9 °F 30.13 in NW 1.0 mph 4.0 mph 96 % 0.00 in 0 W/m2
06:30 39.9 °F 38.9 °F 30.13 in NW 2.0 mph 4.0 mph 96 % 0.00 in 0 W/m2
06:35 39.9 °F 38.9 °F 30.13 in NW 2.0 mph 4.0 mph 96 % 0.00 in 0 W/m2
06:40 39.9 °F 38.9 °F 30.13 in NW 1.0 mph 4.0 mph 96 % 0.00 in 0 W/m2
06:45 39.9 °F 38.9 °F 30.14 in NW 1.0 mph 4.0 mph 96 % 0.00 in 5 W/m2
06:50 39.9 °F 38.9 °F 30.14 in NW 1.0 mph 4.0 mph 96 % 0.00 in 7 W/m2
06:55 39.7 °F 38.7 °F 30.14 in Calm   2.0 mph 96 % 0.00 in 9 W/m2
07:00 39.7 °F 38.7 °F 30.13 in Calm     96 % 0.00 in 11 W/m2
07:05 39.6 °F 38.5 °F 30.13 in Calm   2.0 mph 96 % 0.00 in 12 W/m2
07:10 39.7 °F 38.7 °F 30.14 in Calm   2.0 mph 96 % 0.00 in 14 W/m2
07:15 39.6 °F 38.5 °F 30.13 in Calm     96 % 0.00 in 16 W/m2
07:20 39.6 °F 38.5 °F 30.14 in Calm     96 % 0.00 in 18 W/m2
07:25 39.6 °F 38.5 °F 30.14 in Calm     96 % 0.00 in 19 W/m2
07:30 39.6 °F 38.5 °F 30.14 in Calm   2.0 mph 96 % 0.00 in 21 W/m2
07:35 39.6 °F 38.8 °F 30.14 in Calm   2.0 mph 97 % 0.00 in 23 W/m2
07:40 39.7 °F 39.0 °F 30.14 in Calm     97 % 0.00 in 25 W/m2
07:45 39.9 °F 39.1 °F 30.14 in Calm   4.0 mph 97 % 0.00 in 25 W/m2
07:50 40.6 °F 39.9 °F 30.14 in NW 1.0 mph 5.0 mph 97 % 0.00 in 144 W/m2
07:55 41.2 °F 40.4 °F 30.14 in NW 1.0 mph 5.0 mph 97 % 0.00 in 158 W/m2
08:00 41.7 °F 40.9 °F 30.15 in Calm   1.0 mph 97 % 0.00 in 169 W/m2
08:05 42.3 °F 41.7 °F 30.15 in Calm     98 % 0.00 in 181 W/m2
08:10 42.8 °F 42.3 °F 30.15 in Calm     98 % 0.00 in 192 W/m2
08:15 43.5 °F 43.0 °F 30.15 in Calm     98 % 0.00 in 204 W/m2
08:16 43.9 °F 43.4 °F 30.15 in Calm     98 % 0.00 in 207 W/m2
08:21 45.1 °F 44.6 °F 30.15 in Calm     98 % 0.00 in 220 W/m2
08:26 45.7 °F 45.1 °F 30.15 in Calm     98 % 0.00 in 232 W/m2
08:31 45.9 °F 45.3 °F 30.15 in Calm     98 % 0.00 in 244 W/m2
08:36 46.0 °F 45.5 °F 30.15 in Calm     98 % 0.00 in 257 W/m2
08:41 46.2 °F 45.4 °F 30.15 in Calm     97 % 0.00 in 269 W/m2
08:46 46.6 °F 45.8 °F 30.15 in Calm     97 % 0.00 in 281 W/m2
08:51 46.9 °F 46.1 °F 30.15 in Calm     97 % 0.00 in 295 W/m2
08:56 47.5 °F 46.7 °F 30.15 in Calm     97 % 0.00 in 306 W/m2
09:01 47.8 °F 47.0 °F 30.15 in Calm     97 % 0.00 in 320 W/m2
09:06 48.4 °F 47.6 °F 30.15 in Calm   1.0 mph 97 % 0.00 in 332 W/m2
09:11 48.7 °F 47.9 °F 30.15 in Calm   1.0 mph 97 % 0.00 in 345 W/m2
09:16 49.3 °F 48.5 °F 30.15 in Calm   1.0 mph 97 % 0.00 in 355 W/m2
09:21 49.6 °F 48.8 °F 30.15 in Calm   2.0 mph 97 % 0.00 in 366 W/m2
09:26 50.2 °F 49.1 °F 30.16 in SSW 1.0 mph 5.0 mph 96 % 0.00 in 380 W/m2
09:31 50.7 °F 49.6 °F 30.15 in SSW 1.0 mph 5.0 mph 96 % 0.00 in 392 W/m2
09:36 51.4 °F 50.1 °F 30.15 in SW 1.0 mph 5.0 mph 95 % 0.00 in 403 W/m2
09:42 51.8 °F 49.8 °F 30.15 in SW 1.0 mph 4.0 mph 93 % 0.00 in 415 W/m2
09:47 52.0 °F 49.7 °F 30.15 in SW 1.0 mph 5.0 mph 92 % 0.00 in 427 W/m2
09:52 52.3 °F 49.5 °F 30.16 in SW 2.0 mph 6.0 mph 90 % 0.00 in 438 W/m2
09:57 52.7 °F 49.2 °F 30.15 in SW 2.0 mph 6.0 mph 88 % 0.00 in 450 W/m2
10:02 53.4 °F 49.6 °F 30.15 in SW 1.0 mph 6.0 mph 87 % 0.00 in 462 W/m2
10:07 54.0 °F 48.9 °F 30.15 in SW 1.0 mph 6.0 mph 83 % 0.00 in 471 W/m2
10:12 54.7 °F 49.3 °F 30.15 in SW 2.0 mph 6.0 mph 82 % 0.00 in 487 W/m2
10:17 55.2 °F 48.5 °F 30.15 in SW 1.0 mph 4.0 mph 78 % 0.00 in 497 W/m2
10:22 56.1 °F 48.3 °F 30.15 in SW 1.0 mph 6.0 mph 75 % 0.00 in 515 W/m2
10:27 56.5 °F 48.3 °F 30.15 in SW 1.0 mph 6.0 mph 74 % 0.00 in 545 W/m2
10:32 57.0 °F 48.4 °F 30.15 in SW 1.0 mph 5.0 mph 73 % 0.00 in 571 W/m2
10:37 57.2 °F 47.9 °F 30.15 in SW 2.0 mph 6.0 mph 71 % 0.00 in 466 W/m2
10:42 57.2 °F 47.9 °F 30.15 in WSW 3.0 mph 7.0 mph 71 % 0.00 in 564 W/m2
10:47 57.4 °F 47.7 °F 30.15 in WSW 3.0 mph 7.0 mph 70 % 0.00 in 485 W/m2
10:52 57.4 °F 47.7 °F 30.15 in West 3.0 mph 6.0 mph 70 % 0.00 in 526 W/m2
10:57 57.7 °F 47.6 °F 30.15 in WSW 2.0 mph 6.0 mph 69 % 0.00 in 538 W/m2
11:02 57.6 °F 47.5 °F 30.15 in WSW 2.0 mph 7.0 mph 69 % 0.00 in 394 W/m2
11:07 57.9 °F 48.2 °F 30.15 in WSW 1.0 mph 7.0 mph 70 % 0.00 in 647 W/m2
11:12 58.3 °F 47.4 °F 30.15 in West 2.0 mph 6.0 mph 67 % 0.00 in 673 W/m2
11:17 58.6 °F 47.7 °F 30.14 in West 3.0 mph 6.0 mph 67 % 0.00 in 712 W/m2
11:22 59.2 °F 47.8 °F 30.14 in NW 2.0 mph 5.0 mph 66 % 0.00 in 722 W/m2
11:27 59.2 °F 47.8 °F 30.15 in NW 2.0 mph 5.0 mph 66 % 0.00 in 410 W/m2
11:32 59.2 °F 47.4 °F 30.15 in WNW 3.0 mph 9.0 mph 65 % 0.00 in 369 W/m2
11:37 59.2 °F 48.2 °F 30.14 in WNW 3.0 mph 9.0 mph 67 % 0.00 in 606 W/m2
11:42 59.4 °F 48.4 °F 30.15 in WNW 3.0 mph 6.0 mph 67 % 0.00 in 610 W/m2
11:47 59.5 °F 48.2 °F 30.14 in WNW 4.0 mph 8.0 mph 66 % 0.00 in 642 W/m2
11:52 59.7 °F 48.3 °F 30.15 in West 5.0 mph 8.0 mph 66 % 0.00 in 726 W/m2
11:57 59.7 °F 48.3 °F 30.15 in West 4.0 mph 8.0 mph 66 % 0.00 in 596 W/m2
12:02 59.9 °F 48.5 °F 30.14 in West 4.0 mph 9.0 mph 66 % 0.00 in 540 W/m2
12:07 60.1 °F 48.3 °F 30.14 in WSW 5.0 mph 9.0 mph 65 % 0.00 in 554 W/m2
12:12 59.9 °F 48.1 °F 30.14 in WSW 4.0 mph 8.0 mph 65 % 0.00 in 649 W/m2
12:17 59.9 °F 47.3 °F 30.14 in WSW 4.0 mph 9.0 mph 63 % 0.00 in 399 W/m2
12:22 59.7 °F 47.5 °F 30.14 in West 4.0 mph 9.0 mph 64 % 0.00 in 461 W/m2
12:27 59.7 °F 47.5 °F 30.14 in West 4.0 mph 8.0 mph 64 % 0.00 in 724 W/m2
12:32 60.1 °F 47.9 °F 30.14 in WSW 3.0 mph 8.0 mph 64 % 0.00 in 700 W/m2
12:37 60.6 °F 47.9 °F 30.14 in WSW 4.0 mph 11.0 mph 63 % 0.00 in 636 W/m2
12:42 61.0 °F 47.4 °F 30.15 in West 5.0 mph 11.0 mph 61 % 0.00 in 603 W/m2
12:47 61.2 °F 47.6 °F 30.14 in West 3.0 mph 9.0 mph 61 % 0.00 in 578 W/m2
12:52 61.5 °F 47.9 °F 30.14 in SW 2.0 mph 7.0 mph 61 % 0.00 in 677 W/m2
12:57 61.5 °F 47.9 °F 30.14 in SW 4.0 mph 7.0 mph 61 % 0.00 in 127 W/m2
13:02 61.0 °F 47.9 °F 30.14 in SW 4.0 mph 7.0 mph 62 % 0.00 in 714 W/m2
13:07 61.2 °F 47.6 °F 30.14 in WSW 4.0 mph 7.0 mph 61 % 0.00 in 693 W/m2
13:12 61.5 °F 47.9 °F 30.14 in WNW 4.0 mph 8.0 mph 61 % 0.00 in 446 W/m2
13:18 61.5 °F 47.5 °F 30.14 in NW 4.0 mph 8.0 mph 60 % 0.00 in 134 W/m2
13:23 61.7 °F 47.7 °F 30.14 in WNW 3.0 mph 7.0 mph 60 % 0.00 in 705 W/m2
13:28 61.9 °F 47.8 °F 30.14 in West 4.0 mph 9.0 mph 60 % 0.00 in 163 W/m2
13:38 61.3 °F 47.8 °F 30.14 in WNW 4.0 mph 8.0 mph 61 % 0.00 in 176 W/m2
13:43 61.0 °F 47.4 °F 30.14 in NW 4.0 mph 8.0 mph 61 % 0.00 in 165 W/m2
13:48 61.2 °F 48.9 °F 30.14 in NW 4.0 mph 10.0 mph 64 % 0.00 in 780 W/m2
13:53 61.5 °F 48.4 °F 30.14 in WNW 6.0 mph 13.0 mph 62 % 0.00 in 700 W/m2
13:58 62.1 °F 48.0 °F 30.14 in WNW 7.0 mph 13.0 mph 60 % 0.00 in 659 W/m2
14:03 62.2 °F 48.2 °F 30.14 in WNW 6.0 mph 12.0 mph 60 % 0.00 in 621 W/m2
14:08 62.6 °F 47.6 °F 30.14 in WNW 6.0 mph 11.0 mph 58 % 0.00 in 601 W/m2
14:13 62.8 °F 47.3 °F 30.14 in WNW 6.0 mph 11.0 mph 57 % 0.00 in 645 W/m2
14:18 63.0 °F 47.9 °F 30.14 in WNW 6.0 mph 10.0 mph 58 % 0.00 in 622 W/m2
14:23 63.0 °F 47.5 °F 30.14 in West 6.0 mph 11.0 mph 57 % 0.00 in 608 W/m2
14:28 62.8 °F 48.2 °F 30.14 in West 7.0 mph 11.0 mph 59 % 0.00 in 629 W/m2
14:33 62.6 °F 48.5 °F 30.14 in WNW 8.0 mph 13.0 mph 60 % 0.00 in 167 W/m2
14:38 62.2 °F 48.6 °F 30.14 in WNW 7.0 mph 13.0 mph 61 % 0.00 in 195 W/m2
14:43 61.9 °F 48.3 °F 30.14 in WNW 6.0 mph 10.0 mph 61 % 0.00 in 218 W/m2
14:48 61.3 °F 47.3 °F 30.14 in WNW 6.0 mph 11.0 mph 60 % 0.00 in 292 W/m2
14:53 61.5 °F 47.9 °F 30.14 in NW 7.0 mph 13.0 mph 61 % 0.00 in 657 W/m2
14:58 61.9 °F 48.3 °F 30.14 in NW 7.0 mph 13.0 mph 61 % 0.00 in 183 W/m2
15:03 61.9 °F 48.7 °F 30.14 in WNW 7.0 mph 13.0 mph 62 % 0.00 in 146 W/m2
15:08 61.5 °F 47.9 °F 30.14 in WNW 7.0 mph 11.0 mph 61 % 0.00 in 128 W/m2
15:13 61.3 °F 48.2 °F 30.13 in WNW 6.0 mph 10.0 mph 62 % 0.00 in 176 W/m2
15:18 61.3 °F 48.6 °F 30.13 in WNW 5.0 mph 9.0 mph 63 % 0.00 in 592 W/m2
15:23 61.9 °F 48.7 °F 30.13 in WNW 6.0 mph 12.0 mph 62 % 0.00 in 554 W/m2
15:28 62.2 °F 48.6 °F 30.13 in WNW 6.0 mph 12.0 mph 61 % 0.00 in 90 W/m2
15:33 62.2 °F 48.2 °F 30.13 in WNW 6.0 mph 12.0 mph 60 % 0.00 in 543 W/m2
15:38 62.2 °F 48.6 °F 30.13 in WNW 7.0 mph 11.0 mph 61 % 0.00 in 566 W/m2
15:43 62.4 °F 47.4 °F 30.13 in West 7.0 mph 11.0 mph 58 % 0.00 in 123 W/m2
15:48 62.4 °F 47.9 °F 30.12 in WNW 7.0 mph 11.0 mph 59 % 0.00 in 510 W/m2
15:53 62.8 °F 48.2 °F 30.12 in West 7.0 mph 12.0 mph 59 % 0.00 in 468 W/m2
15:58 62.8 °F 47.8 °F 30.12 in West 7.0 mph 12.0 mph 58 % 0.00 in 443 W/m2
16:03 62.8 °F 47.8 °F 30.12 in West 7.0 mph 11.0 mph 58 % 0.00 in 432 W/m2
16:08 62.8 °F 47.3 °F 30.12 in West 8.0 mph 13.0 mph 57 % 0.00 in 417 W/m2
16:09 62.8 °F 47.3 °F 30.12 in West 8.0 mph 13.0 mph 57 % 0.00 in 415 W/m2
16:14 62.8 °F 47.8 °F 30.12 in West 7.0 mph 13.0 mph 58 % 0.00 in 403 W/m2
16:19 63.0 °F 47.5 °F 30.12 in West 7.0 mph 15.0 mph 57 % 0.00 in 387 W/m2
16:24 63.0 °F 47.5 °F 30.12 in West 8.0 mph 15.0 mph 57 % 0.00 in 366 W/m2
16:29 62.6 °F 47.1 °F 30.11 in West 8.0 mph 12.0 mph 57 % 0.00 in 355 W/m2
16:34 62.8 °F 48.2 °F 30.12 in WSW 7.0 mph 13.0 mph 59 % 0.00 in 336 W/m2
16:40 62.8 °F 47.8 °F 30.11 in West 7.0 mph 13.0 mph 58 % 0.00 in 316 W/m2
16:45 62.8 °F 48.2 °F 30.11 in WNW 7.0 mph 13.0 mph 59 % 0.00 in 306 W/m2
16:50 62.8 °F 48.2 °F 30.11 in WNW 7.0 mph 13.0 mph 59 % 0.00 in 295 W/m2
16:55 62.8 °F 48.2 °F 30.11 in WNW 7.0 mph 11.0 mph 59 % 0.00 in 301 W/m2
17:00 62.4 °F 48.3 °F 30.11 in West 6.0 mph 11.0 mph 60 % 0.00 in 318 W/m2
17:05 62.2 °F 48.6 °F 30.11 in West 6.0 mph 10.0 mph 61 % 0.00 in 272 W/m2
17:10 62.4 °F 48.8 °F 30.11 in West 6.0 mph 10.0 mph 61 % 0.00 in 271 W/m2
17:15 62.4 °F 48.3 °F 30.11 in West 7.0 mph 12.0 mph 60 % 0.00 in 250 W/m2
17:20 62.4 °F 48.3 °F 30.10 in West 8.0 mph 13.0 mph 60 % 0.00 in 218 W/m2
17:25 62.2 °F 48.6 °F 30.10 in West 8.0 mph 13.0 mph 61 % 0.00 in 213 W/m2
17:30 62.1 °F 48.4 °F 30.10 in West 7.0 mph 10.0 mph 61 % 0.00 in 211 W/m2
17:35 62.1 °F 49.3 °F 30.10 in West 6.0 mph 9.0 mph 63 % 0.00 in 195 W/m2
17:40 62.1 °F 48.9 °F 30.10 in West 5.0 mph 9.0 mph 62 % 0.00 in 178 W/m2
17:45 61.9 °F 48.7 °F 30.10 in West 6.0 mph 9.0 mph 62 % 0.00 in 167 W/m2
17:50 61.9 °F 49.1 °F 30.10 in West 6.0 mph 9.0 mph 63 % 0.00 in 151 W/m2
17:55 61.5 °F 48.4 °F 30.11 in West 6.0 mph 10.0 mph 62 % 0.00 in 134 W/m2
18:00 61.5 °F 48.8 °F 30.11 in West 6.0 mph 10.0 mph 63 % 0.00 in 121 W/m2
18:05 61.5 °F 48.8 °F 30.11 in West 5.0 mph 9.0 mph 63 % 0.00 in 107 W/m2
18:10 61.3 °F 49.1 °F 30.11 in West 5.0 mph 9.0 mph 64 % 0.00 in 93 W/m2
18:15 61.3 °F 49.1 °F 30.11 in West 3.0 mph 8.0 mph 64 % 0.00 in 77 W/m2
18:20 61.0 °F 49.1 °F 30.11 in West 2.0 mph 6.0 mph 65 % 0.00 in 63 W/m2
18:25 60.6 °F 49.2 °F 30.10 in WSW 1.0 mph 6.0 mph 66 % 0.00 in 46 W/m2
18:30 60.3 °F 49.3 °F 30.10 in WSW 1.0 mph 5.0 mph 67 % 0.00 in 26 W/m2
18:35 59.9 °F 48.9 °F 30.11 in WSW 1.0 mph 5.0 mph 67 % 0.00 in 26 W/m2
18:40 59.5 °F 49.0 °F 30.10 in Calm   3.0 mph 68 % 0.00 in 18 W/m2
18:45 59.2 °F 49.4 °F 30.11 in Calm   1.0 mph 70 % 0.00 in 14 W/m2
18:50 58.6 °F 49.3 °F 30.11 in Calm   3.0 mph 71 % 0.00 in 11 W/m2
18:55 58.3 °F 49.3 °F 30.11 in Calm   3.0 mph 72 % 0.00 in 9 W/m2
19:00 57.9 °F 49.3 °F 30.11 in Calm     73 % 0.00 in 7 W/m2
19:05 57.6 °F 49.0 °F 30.11 in Calm     73 % 0.00 in 5 W/m2
19:10 57.4 °F 49.2 °F 30.11 in Calm     74 % 0.00 in 0 W/m2
19:15 56.8 °F 48.6 °F 30.11 in Calm     74 % 0.00 in 0 W/m2
19:20 56.5 °F 48.6 °F 30.11 in Calm   2.0 mph 75 % 0.00 in 0 W/m2
19:25 56.1 °F 48.7 °F 30.11 in Calm   2.0 mph 76 % 0.00 in 0 W/m2
19:30 55.6 °F 48.5 °F 30.11 in Calm   1.0 mph 77 % 0.00 in 0 W/m2
19:35 55.0 °F 48.3 °F 30.11 in Calm   1.0 mph 78 % 0.00 in 0 W/m2
19:40 54.7 °F 48.3 °F 30.11 in Calm     79 % 0.00 in 0 W/m2
19:46 54.1 °F 48.1 °F 30.11 in Calm     80 % 0.00 in 0 W/m2
19:51 53.8 °F 47.8 °F 30.11 in Calm   2.0 mph 80 % 0.00 in 0 W/m2
19:56 53.4 °F 47.7 °F 30.11 in Calm   2.0 mph 81 % 0.00 in 0 W/m2
20:01 53.2 °F 47.9 °F 30.11 in Calm     82 % 0.00 in 0 W/m2
20:06 52.9 °F 47.9 °F 30.11 in Calm   1.0 mph 83 % 0.00 in 0 W/m2
20:11 52.7 °F 47.7 °F 30.11 in Calm   1.0 mph 83 % 0.00 in 0 W/m2
20:16 52.3 °F 47.6 °F 30.12 in Calm   1.0 mph 84 % 0.00 in 0 W/m2
20:21 52.2 °F 47.5 °F 30.11 in Calm   1.0 mph 84 % 0.00 in 0 W/m2
20:26 51.8 °F 47.4 °F 30.11 in Calm     85 % 0.00 in 0 W/m2
20:31 51.4 °F 47.1 °F 30.11 in Calm     85 % 0.00 in 0 W/m2
20:36 51.3 °F 46.9 °F 30.11 in Calm     85 % 0.00 in 0 W/m2
20:41 50.9 °F 46.9 °F 30.11 in Calm     86 % 0.00 in 0 W/m2
20:46 50.5 °F 46.5 °F 30.11 in Calm     86 % 0.00 in 0 W/m2
20:51 50.4 °F 46.3 °F 30.11 in Calm     86 % 0.00 in 0 W/m2
20:56 50.0 °F 46.0 °F 30.11 in Calm     86 % 0.00 in 0 W/m2
21:01 49.8 °F 46.1 °F 30.11 in Calm     87 % 0.00 in 0 W/m2
21:06 49.5 °F 45.8 °F 30.11 in Calm     87 % 0.00 in 0 W/m2
21:11 49.3 °F 45.6 °F 30.11 in Calm     87 % 0.00 in 0 W/m2
21:16 49.1 °F 45.7 °F 30.11 in Calm     88 % 0.00 in 0 W/m2
21:21 48.9 °F 45.5 °F 30.11 in Calm     88 % 0.00 in 0 W/m2
21:26 48.7 °F 45.6 °F 30.11 in Calm     89 % 0.00 in 0 W/m2
21:27 48.6 °F 45.5 °F 30.11 in Calm     89 % 0.00 in 0 W/m2
21:32 48.4 °F 45.3 °F 30.11 in Calm     89 % 0.00 in 0 W/m2
21:37 48.4 °F 45.6 °F 30.11 in Calm     90 % 0.00 in 0 W/m2
21:42 48.4 °F 45.6 °F 30.11 in Calm     90 % 0.00 in 0 W/m2
21:47 48.0 °F 45.2 °F 30.11 in Calm     90 % 0.00 in 0 W/m2
21:52 48.0 °F 45.2 °F 30.11 in Calm   2.0 mph 90 % 0.00 in 0 W/m2
21:53 48.0 °F 45.2 °F 30.11 in Calm   2.0 mph 90 % 0.00 in 0 W/m2
21:58 47.8 °F 45.0 °F 30.11 in Calm   2.0 mph 90 % 0.00 in 0 W/m2
22:03 47.8 °F 45.3 °F 30.11 in Calm   2.0 mph 91 % 0.00 in 0 W/m2
22:08 47.8 °F 45.3 °F 30.11 in Calm   1.0 mph 91 % 0.00 in 0 W/m2
22:13 47.8 °F 45.3 °F 30.11 in Calm   1.0 mph 91 % 0.00 in 0 W/m2
22:18 47.7 °F 45.2 °F 30.11 in Calm     91 % 0.00 in 0 W/m2
22:23 47.5 °F 45.0 °F 30.11 in Calm   3.0 mph 91 % 0.00 in 0 W/m2
22:28 47.1 °F 44.6 °F 30.11 in Calm   3.0 mph 91 % 0.00 in 0 W/m2
22:33 47.1 °F 44.6 °F 30.10 in Calm   2.0 mph 91 % 0.00 in 0 W/m2
22:38 47.1 °F 44.6 °F 30.10 in Calm   2.0 mph 91 % 0.00 in 0 W/m2
22:43 47.1 °F 44.6 °F 30.10 in Calm   2.0 mph 91 % 0.00 in 0 W/m2
22:48 46.9 °F 44.7 °F 30.10 in Calm   2.0 mph 92 % 0.00 in 0 W/m2
22:53 46.9 °F 44.7 °F 30.10 in Calm   2.0 mph 92 % 0.00 in 0 W/m2
22:58 46.9 °F 44.7 °F 30.10 in Calm   2.0 mph 92 % 0.00 in 0 W/m2
23:03 46.8 °F 44.6 °F 30.10 in Calm   2.0 mph 92 % 0.00 in 0 W/m2
23:08 46.8 °F 44.6 °F 30.10 in Calm   2.0 mph 92 % 0.00 in 0 W/m2
23:13 46.8 °F 44.6 °F 30.10 in Calm   1.0 mph 92 % 0.00 in 0 W/m2
23:14 46.8 °F 44.6 °F 30.10 in Calm     92 % 0.00 in 0 W/m2
23:19 46.8 °F 44.6 °F 30.10 in Calm     92 % 0.00 in 0 W/m2
23:25 46.6 °F 44.4 °F 30.10 in Calm     92 % 0.00 in 0 W/m2
23:30 46.2 °F 44.0 °F 30.10 in Calm   2.0 mph 92 % 0.00 in 0 W/m2
23:35 46.0 °F 43.8 °F 30.09 in WSW 1.0 mph 4.0 mph 92 % 0.00 in 0 W/m2
23:40 46.0 °F 43.8 °F 30.09 in WSW 1.0 mph 4.0 mph 92 % 0.00 in 0 W/m2
23:45 46.0 °F 43.8 °F 30.09 in Calm   2.0 mph 92 % 0.00 in 0 W/m2
23:50 46.0 °F 43.8 °F 30.09 in Calm     92 % 0.00 in 0 W/m2
23:55 45.9 °F 43.7 °F 30.09 in Calm     92 % 0.00 in 0 W/m2
Delerius-Weather
Compliments of Weather Underground - 2.25 mb

Data updates at regular intervals.